Time;durP1;ratioP1;P1;durP2;ratioP2;P2;SDS_P1;SDS_P2;PMS_P1;PMS_P2;Temp;Humidity;BMP_temperature;BMP_pressure;BME280_temperature;BME280_humidity;BME280_pressure;Samples;Min_cycle;Max_cycle;Signal;HPM_P1;HPM_P2
2023/01/19 00:02:20;;;;;;;8.95;4.13;;;2.30;99.90;;;1.93;100.00;99721.50;5164211;28;20046;-69
2023/01/19 00:04:52;;;;;;;10.02;3.83;;;2.30;99.90;;;1.94;100.00;99719.81;5163854;28;20069;-69
2023/01/19 00:07:24;;;;;;;7.30;3.40;;;2.30;99.90;;;1.92;100.00;99713.72;5162713;28;20054;-69
2023/01/19 00:09:58;;;;;;;9.52;3.95;;;2.30;99.90;;;1.89;100.00;99730.75;5161844;28;20046;-70
2023/01/19 00:12:30;;;;;;;9.18;3.92;;;2.30;99.90;;;1.87;100.00;99726.31;5162302;28;20039;-67
2023/01/19 00:15:02;;;;;;;9.18;3.97;;;2.30;99.90;;;1.85;100.00;99728.81;5163524;28;20376;-68
2023/01/19 00:17:34;;;;;;;11.02;4.90;;;2.30;99.90;;;1.83;100.00;99725.28;5161729;28;20219;-69
2023/01/19 00:20:09;;;;;;;8.35;3.97;;;2.20;99.90;;;1.82;100.00;99718.34;5162740;28;20384;-68
2023/01/19 00:22:41;;;;;;;9.40;4.28;;;2.30;99.90;;;1.82;100.00;99728.63;5163099;28;20414;-70
2023/01/19 00:25:14;;;;;;;8.20;4.38;;;2.20;99.90;;;1.80;100.00;99729.38;5162163;28;20050;-68
2023/01/19 00:27:48;;;;;;;10.07;4.40;;;2.30;99.90;;;1.79;100.00;99736.19;5152473;28;20040;-68
2023/01/19 00:30:20;;;;;;;10.15;4.45;;;2.20;99.90;;;1.79;100.00;99733.63;5162370;28;20042;-68
2023/01/19 00:32:52;;;;;;;9.43;4.10;;;2.20;99.90;;;1.79;100.00;99723.34;5162728;28;20037;-70
2023/01/19 00:35:24;;;;;;;9.82;4.00;;;2.20;99.90;;;1.79;100.00;99728.50;5177732;28;20068;-68
2023/01/19 00:37:57;;;;;;;10.65;4.38;;;2.20;99.90;;;1.77;100.00;99730.09;5181896;28;20056;-68
2023/01/19 00:43:21;;;;;;;8.88;3.95;;;2.20;99.90;;;1.78;100.00;99724.16;5177954;28;20053;-70
2023/01/19 00:45:54;;;;;;;11.65;3.97;;;2.20;99.90;;;1.78;100.00;99729.31;5182014;28;20410;-69
2023/01/19 00:48:27;;;;;;;10.48;4.60;;;2.20;99.90;;;1.76;100.00;99725.78;5166064;28;20056;-67
2023/01/19 00:50:59;;;;;;;8.00;3.63;;;2.20;99.90;;;1.76;100.00;99733.47;5161288;28;20380;-67
2023/01/19 00:53:32;;;;;;;8.82;4.07;;;2.20;99.90;;;1.74;100.00;99729.94;5161364;28;20030;-67
2023/01/19 00:56:05;;;;;;;7.97;3.92;;;2.10;99.90;;;1.75;100.00;99730.81;5162650;28;20082;-67
2023/01/19 00:58:38;;;;;;;10.07;3.88;;;2.10;99.90;;;1.73;100.00;99730.75;5161810;28;20125;-67
2023/01/19 01:01:10;;;;;;;8.55;3.55;;;2.10;99.90;;;1.74;100.00;99729.03;5168863;28;20034;-68
2023/01/19 01:03:44;;;;;;;9.00;3.55;;;2.10;99.90;;;1.71;100.00;99729.78;5162124;28;20053;-67
2023/01/19 01:06:17;;;;;;;9.48;4.20;;;2.10;99.90;;;1.67;100.00;99727.84;5161888;28;20046;-67
2023/01/19 01:08:49;;;;;;;9.45;4.72;;;2.10;99.90;;;1.62;100.00;99729.28;5162483;28;20207;-67
2023/01/19 01:11:21;;;;;;;9.65;4.43;;;2.00;99.90;;;1.54;100.00;99728.00;5162806;28;20558;-67
2023/01/19 01:13:55;;;;;;;11.13;4.78;;;2.00;99.90;;;1.51;100.00;99725.28;5162261;28;20126;-67
2023/01/19 01:16:27;;;;;;;9.55;4.05;;;2.00;99.90;;;1.49;100.00;99721.72;5162310;28;20410;-67
2023/01/19 01:19:00;;;;;;;8.88;4.15;;;2.00;99.90;;;1.49;100.00;99732.00;5161261;28;20403;-67
2023/01/19 01:21:33;;;;;;;8.57;4.18;;;1.90;99.90;;;1.50;100.00;99728.63;5162297;28;20065;-67
2023/01/19 01:24:06;;;;;;;10.52;4.38;;;1.90;99.90;;;1.49;100.00;99732.00;5161906;28;20039;-67
2023/01/19 01:26:38;;;;;;;9.32;4.38;;;1.90;99.90;;;1.51;100.00;99740.69;5161931;28;20050;-67
2023/01/19 01:29:12;;;;;;;10.88;4.60;;;1.90;99.90;;;1.53;100.00;99744.22;5162038;28;20066;-67
2023/01/19 01:31:44;;;;;;;8.70;3.72;;;1.90;99.90;;;1.58;100.00;99742.78;5166198;28;20155;-67
2023/01/19 01:34:16;;;;;;;9.50;3.90;;;2.00;99.90;;;1.60;100.00;99734.34;5165938;28;20476;-67
2023/01/19 01:36:49;;;;;;;11.65;5.25;;;2.00;99.90;;;1.63;100.00;99742.22;5161421;28;20070;-68
2023/01/19 01:39:21;;;;;;;8.00;3.72;;;2.00;99.90;;;1.66;100.00;99749.19;5165235;28;20042;-68
2023/01/19 01:41:54;;;;;;;8.32;4.20;;;2.00;99.90;;;1.70;100.00;99737.41;5164647;28;20388;-68
2023/01/19 01:44:49;;;;;;;8.75;3.92;;;2.10;99.90;;;1.71;100.00;99739.19;5166662;28;20066;-68
2023/01/19 01:47:31;;;;;;;7.82;3.40;;;2.10;99.90;;;1.72;100.00;99752.09;5165443;28;20082;-68
2023/01/19 01:50:10;;;;;;;11.13;4.07;;;2.10;99.90;;;1.69;100.00;99751.91;5164633;28;20044;-68
2023/01/19 01:52:48;;;;;;;10.95;4.97;;;2.10;99.90;;;1.69;100.00;99757.06;5163448;28;20141;-67
2023/01/19 01:55:23;;;;;;;9.35;3.67;;;2.10;99.90;;;1.68;100.00;99747.59;5164113;28;20048;-68
2023/01/19 01:57:59;;;;;;;;;;;2.10;99.90;;;1.67;100.00;99753.53;5164253;28;20101;-68
2023/01/19 02:02:49;;;;;;;8.68;3.35;;;2.00;99.90;;;1.66;100.00;99756.03;5164048;28;20020;-67
2023/01/19 02:03:25;;;;;;;7.30;3.67;;;2.00;99.90;;;1.66;100.00;99756.03;5165887;28;20600;-68
2023/01/19 02:06:02;;;;;;;6.93;3.58;;;2.00;99.90;;;1.66;100.00;99759.47;5181199;28;20156;-68
2023/01/19 02:14:19;;;;;;;6.63;3.05;;;2.00;99.90;;;1.70;100.00;99757.97;5165691;28;20462;-68
2023/01/19 02:16:53;;;;;;;7.05;3.13;;;2.10;99.90;;;1.72;100.00;99754.66;5165741;28;20050;-68
2023/01/19 02:19:32;;;;;;;6.07;3.42;;;2.10;99.90;;;1.75;100.00;99757.38;5165370;28;20042;-68
2023/01/19 02:22:15;;;;;;;8.38;3.05;;;2.10;99.90;;;1.78;100.00;99752.44;5165963;28;20050;-68
2023/01/19 02:24:50;;;;;;;7.60;3.30;;;2.10;99.90;;;1.80;100.00;99755.94;5165120;28;20376;-68
2023/01/19 02:27:22;;;;;;;8.98;4.10;;;2.10;99.90;;;1.81;100.00;99756.81;5165589;28;20101;-68
2023/01/19 02:29:55;;;;;;;7.40;3.25;;;2.20;99.90;;;1.83;100.00;99756.13;5164936;28;20046;-68
2023/01/19 02:32:28;;;;;;;8.23;4.10;;;2.20;99.90;;;1.87;100.00;99757.16;5165506;28;20077;-68
2023/01/19 02:35:00;;;;;;;7.82;4.07;;;2.20;99.90;;;1.89;100.00;99751.31;5165518;28;20050;-68
2023/01/19 02:37:38;;;;;;;7.28;3.92;;;2.30;99.90;;;1.89;100.00;99751.31;5164130;28;20050;-68
2023/01/19 02:40:15;;;;;;;9.70;4.60;;;2.30;99.90;;;1.92;100.00;99749.69;5163850;28;20499;-68
2023/01/19 02:42:50;;;;;;;8.55;3.63;;;2.30;99.90;;;1.96;100.00;99746.50;5165198;28;20058;-69
2023/01/19 02:45:24;;;;;;;8.70;3.90;;;2.30;99.90;;;1.97;100.00;99748.25;5164945;28;20141;-68
2023/01/19 02:47:56;;;;;;;7.72;3.75;;;2.40;99.90;;;1.97;100.00;99754.28;5164954;28;20081;-68
2023/01/19 02:50:45;;;;;;;9.82;4.25;;;2.40;99.90;;;1.98;100.00;99756.03;5164604;28;20073;-68
2023/01/19 02:53:53;;;;;;;8.40;3.97;;;2.40;99.90;;;1.97;100.00;99753.41;5163845;28;20042;-68
2023/01/19 02:56:53;;;;;;;9.27;4.65;;;2.40;99.90;;;2.00;100.00;99750.97;5164987;28;20042;-68
2023/01/19 02:59:45;;;;;;;9.18;4.43;;;2.40;99.90;;;2.01;100.00;99751.03;5164556;28;20060;-68
2023/01/19 03:02:35;;;;;;;9.48;4.10;;;2.40;99.90;;;2.02;100.00;99747.69;5165234;28;20054;-67
2023/01/19 03:05:29;;;;;;;7.25;3.42;;;2.40;99.90;;;2.01;100.00;99742.44;5165353;28;20530;-68
2023/01/19 03:08:14;;;;;;;8.40;3.83;;;2.40;99.90;;;2.01;100.00;99738.19;5165199;28;20114;-68
2023/01/19 03:10:55;;;;;;;9.35;3.88;;;2.40;99.90;;;2.02;100.00;99741.63;5164203;28;20046;-68
2023/01/19 03:13:42;;;;;;;8.40;3.58;;;2.40;99.90;;;2.01;100.00;99742.44;5164856;28;20081;-68
2023/01/19 03:16:20;;;;;;;8.25;3.13;;;2.40;99.90;;;1.99;100.00;99737.25;5164522;28;20049;-68
2023/01/19 03:18:57;;;;;;;7.85;3.38;;;2.40;99.90;;;1.96;100.00;99742.22;5163998;28;20054;-68
2023/01/19 03:21:31;;;;;;;6.75;3.55;;;2.40;99.90;;;1.95;100.00;99742.13;5164466;28;20042;-67
2023/01/19 03:24:07;;;;;;;6.75;3.05;;;2.40;99.90;;;1.90;100.00;99737.66;5164596;28;20054;-67
2023/01/19 03:26:44;;;;;;;7.40;3.30;;;2.30;99.90;;;1.89;100.00;99735.91;5164675;28;20466;-68
2023/01/19 03:29:19;;;;;;;6.90;3.42;;;2.30;99.90;;;1.90;100.00;99734.19;5163911;28;20121;-68
2023/01/19 03:31:53;;;;;;;8.90;3.60;;;2.30;99.90;;;1.94;100.00;99737.81;5164757;28;20046;-67
2023/01/19 03:34:29;;;;;;;8.05;3.50;;;2.40;99.90;;;1.97;100.00;99745.69;5164566;28;20126;-68
2023/01/19 03:37:05;;;;;;;5.60;2.83;;;2.40;99.90;;;2.00;100.00;99749.28;5164080;28;20042;-68
2023/01/19 03:39:38;;;;;;;6.18;2.83;;;2.40;99.90;;;2.05;100.00;99746.97;5162746;28;20038;-68
2023/01/19 03:42:14;;;;;;;4.82;2.70;;;2.40;99.90;;;2.08;100.00;99752.25;5163941;28;20054;-68
2023/01/19 03:44:50;;;;;;;5.00;2.60;;;2.40;99.90;;;2.11;100.00;99749.84;5164200;28;20042;-69
2023/01/19 03:47:23;;;;;;;6.03;2.72;;;2.50;99.90;;;2.14;100.00;99757.69;5163753;28;20491;-68
2023/01/19 03:49:58;;;;;;;8.43;2.83;;;2.50;99.90;;;2.16;100.00;99750.97;5162220;28;20053;-68
2023/01/19 03:52:33;;;;;;;7.47;2.78;;;2.50;99.90;;;2.18;100.00;99751.94;5163377;28;20050;-68
2023/01/19 03:55:08;;;;;;;4.45;2.58;;;2.60;99.90;;;2.22;100.00;99750.38;5162583;28;20053;-68
2023/01/19 03:57:40;;;;;;;6.00;2.65;;;2.60;99.90;;;2.24;100.00;99749.66;5164016;28;20045;-68
2023/01/19 04:00:16;;;;;;;5.55;2.83;;;2.60;99.90;;;2.22;100.00;99755.53;5162831;28;20141;-68
2023/01/19 04:02:48;;;;;;;6.07;2.83;;;2.60;99.90;;;2.21;100.00;99758.91;5162690;28;20081;-68
2023/01/19 04:05:21;;;;;;;5.35;3.00;;;2.60;99.90;;;2.18;100.00;99754.50;5163937;28;20077;-68
2023/01/19 04:07:53;;;;;;;6.45;3.00;;;2.60;99.90;;;2.18;100.00;99752.81;5163161;28;20046;-68
2023/01/19 04:10:25;;;;;;;6.00;3.20;;;2.60;99.90;;;2.17;100.00;99755.31;5163512;28;20046;-68
2023/01/19 04:12:58;;;;;;;6.25;2.85;;;2.60;99.90;;;2.18;100.00;99759.63;5163713;28;20070;-68
2023/01/19 04:15:32;;;;;;;6.75;3.35;;;2.60;99.90;;;2.19;100.00;99761.41;5163552;28;20077;-68
2023/01/19 04:18:05;;;;;;;6.05;2.78;;;2.60;99.90;;;2.22;100.00;99760.66;5162304;28;20049;-68
2023/01/19 04:20:37;;;;;;;6.97;2.92;;;2.60;99.90;;;2.22;100.00;99756.44;5178087;28;20061;-68
2023/01/19 04:23:10;;;;;;;7.25;3.25;;;2.60;99.90;;;2.23;100.00;99750.47;5163728;28;20073;-68
2023/01/19 04:25:42;;;;;;;7.18;3.10;;;2.60;99.90;;;2.23;100.00;99747.03;5163581;28;20073;-67
2023/01/19 04:28:14;;;;;;;7.10;3.60;;;2.60;99.90;;;2.22;100.00;99751.28;5178133;28;20054;-68
2023/01/19 04:30:50;;;;;;;8.13;3.92;;;2.60;99.90;;;2.24;100.00;99752.25;5161850;28;20528;-68
2023/01/19 04:33:23;;;;;;;7.63;3.90;;;2.60;99.90;;;2.25;100.00;99745.41;5162135;28;20124;-68
2023/01/19 04:35:56;;;;;;;8.85;3.90;;;2.60;99.90;;;2.22;100.00;99748.72;5163200;28;20050;-69
2023/01/19 04:38:28;;;;;;;7.95;4.13;;;2.60;99.90;;;2.22;100.00;99746.16;5163138;28;20042;-68
2023/01/19 04:41:00;;;;;;;8.18;4.07;;;2.60;99.90;;;2.21;100.00;99746.03;5161468;28;20050;-68
2023/01/19 04:43:32;;;;;;;6.80;3.72;;;2.60;99.90;;;2.21;100.00;99743.47;5163047;28;20046;-68
2023/01/19 04:46:06;;;;;;;7.82;3.60;;;2.60;99.90;;;2.17;100.00;99752.75;5163334;28;20503;-68
2023/01/19 04:48:39;;;;;;;8.32;4.10;;;2.60;99.90;;;2.18;100.00;99744.22;5177770;28;20046;-67
2023/01/19 04:51:11;;;;;;;7.88;3.63;;;2.50;99.90;;;2.17;100.00;99751.03;5162786;28;20054;-68
2023/01/19 04:53:43;;;;;;;7.75;3.70;;;2.50;99.90;;;2.15;100.00;99750.09;5163098;28;20507;-68
2023/01/19 04:56:15;;;;;;;8.27;4.13;;;2.60;99.90;;;2.17;100.00;99745.91;5157829;28;20047;-69
2023/01/19 04:58:47;;;;;;;6.80;3.70;;;2.50;99.90;;;2.16;100.00;99736.44;5151536;28;20419;-68
2023/01/19 05:01:21;;;;;;;7.20;3.58;;;2.50;99.90;;;2.19;100.00;99735.69;5157649;28;20058;-68
2023/01/19 05:03:54;;;;;;;6.43;3.20;;;2.60;99.90;;;2.22;100.00;99745.22;5155107;28;20034;-68
2023/01/19 05:06:26;;;;;;;9.40;4.10;;;2.60;99.90;;;2.24;100.00;99744.53;5167059;28;20050;-68
2023/01/19 05:08:58;;;;;;;10.13;4.20;;;2.60;99.90;;;2.24;100.00;99744.53;5166435;28;20053;-68
2023/01/19 05:11:32;;;;;;;11.35;5.03;;;2.60;99.90;;;2.24;100.00;99739.38;5167448;28;20042;-68
2023/01/19 05:14:04;;;;;;;9.27;4.03;;;2.60;99.90;;;2.23;100.00;99747.91;5165489;28;20108;-67
2023/01/19 05:16:37;;;;;;;9.55;4.40;;;2.60;99.90;;;2.28;100.00;99750.69;5166936;28;20058;-68
2023/01/19 05:19:11;;;;;;;8.98;3.50;;;2.60;99.90;;;2.31;100.00;99751.75;5166197;28;20065;-68
2023/01/19 05:21:43;;;;;;;9.68;3.78;;;2.70;99.90;;;2.36;100.00;99747.72;5167079;28;20130;-68
2023/01/19 05:24:15;;;;;;;6.72;3.10;;;2.70;99.90;;;2.43;100.00;99754.06;5161872;28;20398;-68
2023/01/19 05:26:47;;;;;;;6.78;3.08;;;2.80;99.90;;;2.52;100.00;99746.78;5181568;28;20043;-68
2023/01/19 05:29:19;;;;;;;7.05;3.35;;;2.80;99.90;;;2.59;100.00;99753.13;5166024;28;20038;-68
2023/01/19 05:31:53;;;;;;;4.53;2.60;;;2.90;99.90;;;2.63;100.00;99755.94;5166460;28;20500;-68
2023/01/19 05:34:25;;;;;;;6.55;3.03;;;2.90;99.90;;;2.69;100.00;99753.66;5181534;28;20066;-68
2023/01/19 05:36:58;;;;;;;5.00;2.75;;;3.00;99.90;;;2.73;100.00;99764.97;5166455;28;20064;-68
2023/01/19 05:39:30;;;;;;;5.32;2.50;;;3.10;99.90;;;2.80;100.00;99761.88;5166493;28;20357;-68
2023/01/19 05:42:02;;;;;;;6.82;3.10;;;3.10;99.90;;;2.82;100.00;99767.13;5166348;28;20092;-67
2023/01/19 05:44:34;;;;;;;6.13;3.17;;;3.10;99.90;;;2.86;100.00;99771.63;5166132;28;20429;-68
2023/01/19 05:47:08;;;;;;;5.70;2.70;;;3.20;99.90;;;2.88;100.00;99778.63;5166365;28;20042;-68
2023/01/19 05:49:40;;;;;;;5.32;2.72;;;3.20;99.90;;;2.87;100.00;99776.84;5166004;28;20492;-68
2023/01/19 05:52:13;;;;;;;5.82;2.80;;;3.20;99.90;;;2.88;100.00;99780.31;5166656;28;20495;-68
2023/01/19 05:54:47;;;;;;;6.55;3.15;;;3.20;99.90;;;2.90;100.00;99777.00;5165932;28;20038;-68
2023/01/19 05:57:19;;;;;;;5.55;2.95;;;3.20;99.90;;;2.91;100.00;99777.88;5166173;28;20381;-68
2023/01/19 05:59:51;;;;;;;4.50;2.50;;;3.30;99.90;;;2.90;100.00;99782.13;5166034;28;20054;-68
2023/01/19 06:02:27;;;;;;;5.63;2.78;;;3.20;99.90;;;2.90;100.00;99782.13;5166456;28;20046;-68
2023/01/19 06:04:59;;;;;;;6.40;3.25;;;3.30;99.90;;;2.93;100.00;99782.31;5164957;28;20241;-68
2023/01/19 06:07:31;;;;;;;5.35;2.53;;;3.20;99.90;;;2.89;100.00;99790.69;5180880;28;20503;-68
2023/01/19 06:10:04;;;;;;;3.78;2.22;;;3.20;99.90;;;2.86;100.00;99787.94;5180409;28;20058;-68
2023/01/19 06:12:39;;;;;;;4.40;2.58;;;3.20;99.90;;;2.85;100.00;99788.75;5165851;28;20049;-68
2023/01/19 06:15:13;;;;;;;5.70;2.53;;;3.20;99.90;;;2.83;100.00;99795.53;5165599;28;20546;-68
2023/01/19 06:17:47;;;;;;;5.15;2.10;;;3.20;99.90;;;2.83;100.00;99787.81;5165890;28;20124;-68
2023/01/19 06:20:19;;;;;;;6.03;2.65;;;3.20;99.90;;;2.81;100.00;99799.72;5165358;28;20047;-68
2023/01/19 06:22:51;;;;;;;7.05;2.58;;;3.10;99.90;;;2.78;100.00;99789.25;5163748;28;20046;-68
2023/01/19 06:25:24;;;;;;;5.93;2.30;;;3.10;99.90;;;2.76;100.00;99785.72;5161594;28;20053;-69
2023/01/19 06:27:56;;;;;;;8.15;2.78;;;3.10;99.90;;;2.75;100.00;99794.28;5165818;28;20050;-68
2023/01/19 06:30:28;;;;;;;5.35;2.20;;;3.10;99.90;;;2.70;100.00;99795.72;5165708;28;20046;-68
2023/01/19 06:33:01;;;;;;;3.97;2.28;;;3.00;99.90;;;2.67;100.00;99788.75;5165550;28;20129;-69
2023/01/19 06:35:34;;;;;;;5.18;2.40;;;3.00;99.90;;;2.65;100.00;99792.03;5180639;28;20042;-69
2023/01/19 06:38:06;;;;;;;4.22;2.17;;;3.00;99.90;;;2.62;100.00;99800.50;5165578;28;20053;-69
2023/01/19 06:40:39;;;;;;;6.40;2.05;;;3.00;99.90;;;2.61;100.00;99788.44;5165323;28;20431;-69
2023/01/19 06:43:11;;;;;;;3.90;2.10;;;2.90;99.90;;;2.58;100.00;99795.09;5270522;23;20053;-67
2023/01/19 06:45:43;;;;;;;5.57;2.00;;;2.90;99.90;;;2.53;100.00;99802.56;5164800;28;20134;-65
2023/01/19 06:48:17;;;;;;;4.88;2.35;;;2.90;99.90;;;2.52;100.00;99802.50;5178453;28;20509;-66
2023/01/19 06:50:49;;;;;;;6.53;2.63;;;2.90;99.90;;;2.51;100.00;99806.78;5185279;28;20050;-65
2023/01/19 06:53:21;;;;;;;3.90;2.08;;;2.80;99.90;;;2.51;100.00;99805.88;5185309;28;20490;-64
2023/01/19 06:55:54;;;;;;;8.70;2.60;;;2.80;99.90;;;2.47;100.00;99809.09;5200356;28;20058;-64
2023/01/19 06:58:26;;;;;;;6.00;2.70;;;2.80;99.90;;;2.47;100.00;99821.97;5184167;28;20046;-63
2023/01/19 07:01:01;;;;;;;7.55;2.85;;;2.80;99.90;;;2.47;100.00;99819.38;5184840;28;20410;-65
2023/01/19 07:03:37;;;;;;;4.63;2.55;;;2.80;99.90;;;2.43;100.00;99821.81;5185376;28;20108;-63
2023/01/19 07:06:09;;;;;;;4.43;2.30;;;2.80;99.90;;;2.42;100.00;99827.78;5185105;28;20570;-56
2023/01/19 07:08:41;;;;;;;4.07;2.35;;;2.80;99.90;;;2.41;100.00;99831.16;5185000;28;20494;-56
2023/01/19 07:11:13;;;;;;;5.70;2.20;;;2.70;99.90;;;2.42;100.00;99838.06;5184835;28;20042;-55
2023/01/19 07:13:50;;;;;;;5.43;2.60;;;2.70;99.90;;;2.42;100.00;99832.03;5184860;28;20046;-55
2023/01/19 07:16:22;;;;;;;5.28;2.55;;;2.80;99.90;;;2.40;100.00;99843.91;5184886;28;20127;-56
2023/01/19 07:18:56;;;;;;;6.82;2.58;;;2.80;99.90;;;2.38;100.00;99843.84;5185067;28;20050;-56
2023/01/19 07:21:28;;;;;;;6.10;2.58;;;2.70;99.90;;;2.36;100.00;99842.88;5184774;28;20112;-56
2023/01/19 07:24:00;;;;;;;5.60;2.45;;;2.70;99.90;;;2.36;100.00;99850.59;5184802;28;20052;-56
2023/01/19 07:26:32;;;;;;;5.85;2.58;;;2.70;99.90;;;2.35;100.00;99855.66;5183940;28;20089;-56
2023/01/19 07:29:04;;;;;;;4.63;2.30;;;2.70;99.90;;;2.35;100.00;99858.25;5184608;28;20712;-55
2023/01/19 07:31:36;;;;;;;4.85;2.38;;;2.70;99.90;;;2.36;100.00;99866.03;5184870;28;20046;-55
2023/01/19 07:34:09;;;;;;;6.15;2.60;;;2.70;99.90;;;2.34;100.00;99874.44;5184480;28;20041;-55
2023/01/19 07:36:42;;;;;;;7.78;2.63;;;2.70;99.90;;;2.32;100.00;99869.22;5184447;28;20041;-59
2023/01/19 07:39:15;;;;;;;5.63;2.45;;;2.60;99.90;;;2.30;100.00;99873.41;5184541;28;20046;-55
2023/01/19 07:41:48;;;;;;;4.97;2.10;;;2.60;99.90;;;2.29;100.00;99876.81;5184335;28;20056;-54
2023/01/19 07:44:20;;;;;;;7.55;2.60;;;2.60;99.90;;;2.30;100.00;99870.84;5184413;28;20050;-54
2023/01/19 07:46:52;;;;;;;6.78;2.92;;;2.70;99.90;;;2.32;100.00;99876.94;5184267;28;20049;-54
2023/01/19 07:49:26;;;;;;;10.25;3.53;;;2.60;99.90;;;2.36;100.00;99885.72;5184191;28;20053;-54
2023/01/19 07:51:58;;;;;;;8.65;3.40;;;2.70;99.90;;;2.33;100.00;99878.72;5184275;28;20060;-54
2023/01/19 07:54:30;;;;;;;6.38;2.90;;;2.60;99.90;;;2.33;100.00;99878.72;5184044;28;20133;-54
2023/01/19 07:57:02;;;;;;;9.02;3.08;;;2.60;99.90;;;2.32;100.00;99892.38;5184090;28;20042;-54
2023/01/19 07:59:34;;;;;;;5.65;2.88;;;2.70;99.90;;;2.31;100.00;99895.75;5184103;28;20507;-54
2023/01/19 08:02:06;;;;;;;7.55;2.67;;;2.60;99.90;;;2.34;100.00;99895.03;5184007;28;20050;-54
2023/01/19 08:04:40;;;;;;;6.25;2.90;;;2.60;99.90;;;2.34;100.00;99898.47;5184075;28;20049;-54
2023/01/19 08:07:12;;;;;;;10.38;3.50;;;2.70;99.90;;;2.33;100.00;99889.00;5183888;28;20406;-52
2023/01/19 08:09:44;;;;;;;10.63;3.45;;;2.70;99.90;;;2.34;100.00;99895.03;5184126;28;20144;-54
2023/01/19 08:12:17;;;;;;;9.52;3.42;;;2.60;99.90;;;2.36;100.00;99898.59;5182507;28;20060;-53
2023/01/19 08:14:49;;;;;;;8.65;3.22;;;2.70;99.90;;;2.34;100.00;99895.91;5183820;28;20053;-53
2023/01/19 08:17:21;;;;;;;8.13;3.33;;;2.70;99.90;;;2.34;100.00;99901.06;5183482;28;20514;-53
2023/01/19 08:19:55;;;;;;;9.27;3.45;;;2.70;99.90;;;2.33;100.00;99900.97;5183383;28;20128;-54
2023/01/19 08:22:27;;;;;;;6.85;3.00;;;2.70;99.90;;;2.33;100.00;99907.00;5183691;28;20518;-52
2023/01/19 08:24:59;;;;;;;7.07;3.20;;;2.70;99.90;;;2.37;100.00;99908.06;5183036;28;20084;-53
2023/01/19 08:27:31;;;;;;;8.23;3.20;;;2.70;99.90;;;2.35;100.00;99912.25;5182330;28;20458;-54
2023/01/19 08:30:03;;;;;;;6.05;2.92;;;2.70;99.90;;;2.36;100.00;99920.03;5183111;28;20038;-53
2023/01/19 08:32:35;;;;;;;7.45;2.70;;;2.70;99.90;;;2.39;100.00;99915.03;5183309;28;20042;-54
2023/01/19 08:35:09;;;;;;;5.43;2.90;;;2.70;99.90;;;2.43;100.00;99916.09;5183333;28;20071;-53
2023/01/19 08:37:41;;;;;;;8.43;3.05;;;2.70;99.90;;;2.42;100.00;99915.22;5183563;28;20046;-54
2023/01/19 08:40:14;;;;;;;7.72;3.45;;;2.80;99.90;;;2.45;100.00;99924.78;5183781;28;20045;-53
2023/01/19 08:42:46;;;;;;;6.43;3.33;;;2.80;99.90;;;2.50;100.00;99922.47;5183467;28;20532;-54
2023/01/19 08:45:18;;;;;;;7.63;3.15;;;2.90;99.90;;;2.94;100.00;99940.22;5183250;28;20042;-54
2023/01/19 08:47:50;;;;;;;6.53;2.75;;;3.30;99.90;;;2.92;100.00;99934.09;5183287;28;20053;-54
2023/01/19 08:50:24;;;;;;;7.82;2.67;;;3.30;99.90;;;3.08;100.00;99930.63;5183374;28;20514;-55
2023/01/19 08:52:57;;;;;;;6.60;2.47;;;3.50;99.90;;;3.04;100.00;99949.28;5183331;28;20528;-54
2023/01/19 08:55:30;;;;;;;4.85;2.60;;;3.40;99.90;;;3.27;100.00;99946.19;5183073;28;20092;-55
2023/01/19 08:58:03;;;;;;;6.55;2.63;;;3.70;99.90;;;3.27;100.00;99948.78;5183607;28;20042;-54
2023/01/19 09:00:37;;;;;;;5.65;2.63;;;3.70;99.90;;;3.15;100.00;99955.88;5183328;28;20038;-55
2023/01/19 09:03:13;;;;;;;5.72;2.65;;;3.60;99.90;;;3.10;100.00;99954.75;5183225;28;20406;-54
2023/01/19 09:05:46;;;;;;;6.05;2.83;;;3.50;99.90;;;3.04;100.00;99952.75;5182296;28;20108;-54
2023/01/19 09:08:18;;;;;;;7.00;2.70;;;3.40;99.90;;;2.99;100.00;99957.66;5182084;28;20048;-54
2023/01/19 09:10:51;;;;;;;5.18;2.55;;;3.40;99.90;;;2.95;100.00;99960.00;5182510;28;20121;-54
2023/01/19 09:13:23;;;;;;;5.28;2.63;;;3.30;99.90;;;2.95;100.00;99965.16;5183326;28;20517;-55
2023/01/19 09:15:55;;;;;;;5.88;2.53;;;3.30;99.90;;;2.93;100.00;99972.81;5180553;28;20042;-54
2023/01/19 09:18:27;;;;;;;5.35;2.22;;;3.20;99.90;;;2.92;100.00;99976.16;5179152;28;20061;-55
2023/01/19 09:21:02;;;;;;;4.95;2.17;;;3.20;99.90;;;2.90;100.00;99972.63;5183703;28;20056;-53
2023/01/19 09:23:34;;;;;;;5.15;2.60;;;3.20;99.90;;;2.91;100.00;99974.41;5183442;28;20053;-53
2023/01/19 09:26:07;;;;;;;7.40;2.70;;;3.20;99.90;;;2.93;100.00;99977.03;5191611;28;20037;-55
2023/01/19 09:28:39;;;;;;;5.30;2.38;;;3.20;99.90;;;2.93;100.00;99970.22;5183480;28;20127;-54
2023/01/19 09:31:11;;;;;;;5.65;2.83;;;3.20;99.90;;;2.95;100.00;99976.34;5183283;28;20137;-56
2023/01/19 09:33:44;;;;;;;7.28;2.78;;;3.20;99.90;;;3.03;100.00;99979.31;5183621;28;20038;-53
2023/01/19 09:36:17;;;;;;;4.65;2.20;;;3.30;99.90;;;3.19;100.00;99980.97;5183259;28;20045;-53
2023/01/19 09:38:49;;;;;;;6.53;2.65;;;3.40;99.90;;;3.19;100.00;99980.97;5183011;28;20049;-53
2023/01/19 09:41:23;;;;;;;6.00;2.53;;;3.50;99.90;;;3.17;100.00;99974.84;5183142;28;20050;-53
2023/01/19 09:43:59;;;;;;;5.68;2.60;;;3.50;99.90;;;3.14;100.00;99972.13;5183422;28;20076;-53
2023/01/19 09:46:38;;;;;;;6.32;2.78;;;3.50;99.90;;;3.13;100.00;99975.50;5183667;28;20065;-53
2023/01/19 09:49:15;;;;;;;7.43;3.47;;;3.40;99.90;;;3.15;100.00;99979.06;5182261;28;20050;-53
2023/01/19 09:51:51;;;;;;;5.55;2.33;;;3.40;99.90;;;3.15;100.00;99982.50;5185856;28;20506;-53
2023/01/19 09:54:30;;;;;;;7.30;3.15;;;3.40;99.90;;;3.17;100.00;99980.00;5187620;28;20498;-53
2023/01/19 09:57:02;;;;;;;10.73;3.60;;;3.50;99.90;;;3.17;100.00;99983.47;5183192;28;20526;-53
2023/01/19 09:59:35;;;;;;;5.82;2.88;;;3.40;99.90;;;3.19;100.00;99992.13;5185932;28;20086;-53
2023/01/19 10:02:23;;;;;;;6.18;3.47;;;3.40;99.90;;;3.22;100.00;99991.44;5185706;28;20046;-53
2023/01/19 10:05:01;;;;;;;7.72;2.78;;;3.50;99.90;;;3.22;100.00;99997.47;5185684;28;20530;-53
2023/01/19 10:07:54;;;;;;;7.75;2.97;;;3.50;99.90;;;3.23;100.00;99994.06;5185180;28;20057;-53
2023/01/19 10:10:28;;;;;;;7.65;3.47;;;3.50;99.90;;;3.23;100.00;99996.66;5184946;28;20056;-54
2023/01/19 10:13:19;;;;;;;8.43;3.25;;;3.50;99.90;;;3.22;100.00;99996.59;5181529;28;20053;-53
2023/01/19 10:16:03;;;;;;;6.53;3.00;;;3.50;99.90;;;3.22;100.00;99996.59;5184938;28;20045;-54
2023/01/19 10:18:46;;;;;;;7.50;3.38;;;3.50;99.90;;;3.24;100.00;100001.00;5185210;28;20049;-53
2023/01/19 10:21:21;;;;;;;8.48;3.65;;;3.50;99.90;;;3.26;100.00;99998.53;5184705;28;20044;-53
2023/01/19 10:24:00;;;;;;;7.68;3.13;;;3.50;99.90;;;3.26;100.00;100008.81;5184360;28;20052;-53
2023/01/19 10:26:37;;;;;;;8.13;3.80;;;3.50;99.90;;;3.28;100.00;100007.22;5185462;28;20466;-53
2023/01/19 10:29:22;;;;;;;10.00;3.65;;;3.50;99.90;;;3.28;100.00;100007.22;5185197;28;20041;-53
2023/01/19 10:32:04;;;;;;;9.73;4.18;;;3.50;99.90;;;3.26;100.00;100007.13;5185574;28;20042;-53
2023/01/19 10:34:37;;;;;;;9.25;4.15;;;3.50;99.90;;;3.23;100.00;100022.41;5184197;28;20144;-53
2023/01/19 10:37:20;;;;;;;9.57;4.00;;;3.50;99.90;;;3.20;100.00;100003.34;5185229;28;20113;-53
2023/01/19 10:39:57;;;;;;;12.55;3.83;;;3.50;99.90;;;3.18;100.00;100017.81;5185068;28;20160;-54
2023/01/19 10:42:30;;;;;;;8.77;3.90;;;3.50;99.90;;;3.17;100.00;100021.22;5185437;28;20133;-54
2023/01/19 10:45:04;;;;;;;8.75;3.72;;;3.50;99.90;;;3.16;100.00;100022.91;5181389;28;20084;-54
2023/01/19 10:47:39;;;;;;;11.05;3.97;;;3.40;99.90;;;3.14;100.00;100016.81;5184325;28;20037;-54
2023/01/19 10:50:25;;;;;;;13.23;3.95;;;3.40;99.90;;;3.15;100.00;100021.16;5183271;28;20495;-54
2023/01/19 10:53:00;;;;;;;8.98;3.50;;;3.40;99.90;;;3.16;100.00;100019.44;5181377;28;20510;-54
2023/01/19 10:55:37;;;;;;;10.70;4.03;;;3.40;99.90;;;3.16;100.00;100012.59;5193531;28;20046;-54
2023/01/19 10:58:29;;;;;;;8.27;3.80;;;3.50;99.90;;;3.19;100.00;100011.88;5184831;28;20038;-54
2023/01/19 11:01:15;;;;;;;10.43;4.13;;;3.50;99.90;;;3.23;100.00;100011.22;5183912;28;20048;-54
2023/01/19 11:03:48;;;;;;;8.93;4.13;;;3.50;99.90;;;3.24;100.00;100008.72;5199976;28;20506;-54
2023/01/19 11:06:29;;;;;;;12.68;4.28;;;3.50;99.90;;;3.28;100.00;100006.31;5161538;28;20070;-54